Time;durP1;ratioP1;P1;durP2;ratioP2;P2;SDS_P1;SDS_P2;PMS_P1;PMS_P2;Temp;Humidity;BMP_temperature;BMP_pressure;BME280_temperature;BME280_humidity;BME280_pressure;Samples;Min_cycle;Max_cycle;Signal;HPM_P1;HPM_P2
2022/09/06 00:01:26;;;;;;;14.45;9.35;;;19.40;99.90;;;;;;5047487;28;20044;-70
2022/09/06 00:03:51;;;;;;;12.90;9.70;;;19.50;99.90;;;;;;5031496;28;20055;-69
2022/09/06 00:06:18;;;;;;;17.08;10.68;;;19.50;99.90;;;;;;5049177;28;20104;-69
2022/09/06 00:08:46;;;;;;;16.13;11.55;;;19.50;99.90;;;;;;5068680;28;20047;-70
2022/09/06 00:11:13;;;;;;;13.32;11.25;;;19.50;99.90;;;;;;5048832;28;20041;-69
2022/09/06 00:13:38;;;;;;;15.52;10.63;;;19.50;99.90;;;;;;5032932;28;20044;-69
2022/09/06 00:16:10;;;;;;;12.50;10.70;;;19.40;99.90;;;;;;5040375;28;20045;-69
2022/09/06 00:18:36;;;;;;;13.17;10.00;;;19.40;99.90;;;;;;5028303;28;20092;-70
2022/09/06 00:21:04;;;;;;;11.98;10.70;;;19.40;99.90;;;;;;5027938;28;20048;-70
2022/09/06 00:23:30;;;;;;;15.35;10.48;;;19.40;99.90;;;;;;5048531;28;20454;-69
2022/09/06 00:26:03;;;;;;;14.27;11.15;;;19.40;99.90;;;;;;5047160;28;20080;-69
2022/09/06 00:28:29;;;;;;;14.60;10.80;;;19.30;99.90;;;;;;5033064;28;20297;-70
2022/09/06 00:30:54;;;;;;;12.75;10.55;;;19.30;99.90;;;;;;5030139;28;20098;-70
2022/09/06 00:33:20;;;;;;;13.32;9.65;;;19.20;99.90;;;;;;5042958;28;20088;-69
2022/09/06 00:35:48;;;;;;;13.02;10.20;;;19.20;99.90;;;;;;5054948;28;20048;-69
2022/09/06 00:38:13;;;;;;;11.27;10.05;;;19.20;99.90;;;;;;5068716;28;20041;-69
2022/09/06 00:40:39;;;;;;;10.45;9.20;;;19.20;99.90;;;;;;5050779;28;20103;-70
2022/09/06 00:43:04;;;;;;;13.50;9.85;;;19.10;99.90;;;;;;5046830;28;20391;-70
2022/09/06 00:45:30;;;;;;;12.50;9.85;;;19.20;99.90;;;;;;5048206;28;20124;-70
2022/09/06 00:47:58;;;;;;;11.55;9.73;;;19.20;99.90;;;;;;5046496;28;20128;-70
2022/09/06 00:50:25;;;;;;;10.82;9.63;;;19.20;99.90;;;;;;5046362;28;20055;-70
2022/09/06 00:52:52;;;;;;;14.75;9.85;;;19.20;99.90;;;;;;5042812;28;20392;-69
2022/09/06 00:55:19;;;;;;;11.98;9.88;;;19.10;99.90;;;;;;5042450;28;20042;-69
2022/09/06 00:57:49;;;;;;;12.63;9.55;;;19.10;99.90;;;;;;5038336;28;20043;-70
2022/09/06 01:00:16;;;;;;;16.65;10.13;;;19.10;99.90;;;;;;5065782;28;20036;-69
2022/09/06 01:02:42;;;;;;;15.45;9.80;;;19.10;99.90;;;;;;5041822;28;20048;-69
2022/09/06 01:05:09;;;;;;;13.68;9.52;;;19.10;99.90;;;;;;5029083;28;20124;-70
2022/09/06 01:08:00;;;;;;;12.00;9.52;;;19.10;99.90;;;;;;5046475;28;20056;-68
2022/09/06 01:10:37;;;;;;;10.25;9.07;;;19.10;99.90;;;;;;5042742;28;20395;-68
2022/09/06 01:13:13;;;;;;;12.55;9.00;;;19.20;99.90;;;;;;5046951;28;20040;-69
2022/09/06 01:15:54;;;;;;;12.05;8.95;;;19.20;99.90;;;;;;5048485;28;20519;-69
2022/09/06 01:18:42;;;;;;;13.75;9.30;;;19.20;99.90;;;;;;5030096;28;20069;-69
2022/09/06 01:21:28;;;;;;;13.93;9.10;;;19.20;99.90;;;;;;5047258;28;20506;-68
2022/09/06 01:24:15;;;;;;;13.50;9.27;;;19.20;99.90;;;;;;5048469;28;20033;-69
2022/09/06 01:27:33;;;;;;;14.13;11.82;;;19.20;99.90;;;;;;5053154;28;20069;-69
2022/09/06 01:30:06;;;;;;;15.68;12.40;;;19.10;99.90;;;;;;5024428;28;20111;-68
2022/09/06 01:32:54;;;;;;;14.02;12.00;;;18.90;99.90;;;;;;5032443;28;20073;-68
2022/09/06 01:35:42;;;;;;;14.07;12.00;;;18.80;99.90;;;;;;5062107;28;20044;-69
2022/09/06 01:38:09;;;;;;;13.05;11.55;;;18.70;99.90;;;;;;5060446;28;20106;-69
2022/09/06 01:40:35;;;;;;;14.65;11.95;;;18.70;99.90;;;;;;5052761;28;20064;-69
2022/09/06 01:43:04;;;;;;;14.25;10.95;;;18.70;99.90;;;;;;5050363;28;20111;-69
2022/09/06 01:45:44;;;;;;;12.70;11.40;;;18.70;99.90;;;;;;5051819;28;20060;-69
2022/09/06 01:48:27;;;;;;;15.70;11.50;;;18.70;99.90;;;;;;5049460;28;20037;-70
2022/09/06 01:51:11;;;;;;;15.82;11.70;;;18.70;99.90;;;;;;5066699;28;20037;-69
2022/09/06 01:54:00;;;;;;;15.00;11.25;;;18.70;99.90;;;;;;5052665;28;20063;-69
2022/09/06 01:56:36;;;;;;;12.93;11.32;;;18.80;99.90;;;;;;5036336;28;20041;-68
2022/09/06 01:59:13;;;;;;;14.15;12.23;;;18.80;99.90;;;;;;5053589;28;20041;-68
2022/09/06 02:02:11;;;;;;;13.45;11.40;;;18.70;99.90;;;;;;5039098;28;20041;-69
2022/09/06 02:04:41;;;;;;;12.88;11.45;;;18.60;99.90;;;;;;5067567;28;20388;-69
2022/09/06 02:07:20;;;;;;;14.68;12.27;;;18.60;99.90;;;;;;5042843;28;20052;-69
2022/09/06 02:09:52;;;;;;;15.55;11.70;;;18.50;99.90;;;;;;5049070;28;20072;-69
2022/09/06 02:12:19;;;;;;;14.02;12.13;;;18.50;99.90;;;;;;5032297;28;20060;-69
2022/09/06 02:15:10;;;;;;;13.85;12.35;;;18.50;99.90;;;;;;5032084;28;20107;-69
2022/09/06 02:17:41;;;;;;;15.32;12.27;;;18.50;99.90;;;;;;5044635;28;20044;-69
2022/09/06 02:20:12;;;;;;;14.97;12.00;;;18.50;99.90;;;;;;5045488;28;20071;-69
2022/09/06 02:22:42;;;;;;;16.08;13.38;;;18.40;99.90;;;;;;5052685;28;20033;-68
2022/09/06 02:25:12;;;;;;;15.85;13.43;;;18.30;99.90;;;;;;5052590;28;20041;-68
2022/09/06 02:27:38;;;;;;;15.82;13.73;;;18.20;99.90;;;;;;5038735;28;20049;-68
2022/09/06 02:30:05;;;;;;;15.68;12.27;;;18.00;99.90;;;;;;5038113;28;20036;-69
2022/09/06 02:32:36;;;;;;;16.15;12.52;;;18.10;99.90;;;;;;5041462;28;20399;-68
2022/09/06 02:35:08;;;;;;;12.55;11.25;;;18.10;99.90;;;;;;5050002;28;20067;-68
2022/09/06 02:37:33;;;;;;;15.85;11.98;;;18.10;99.90;;;;;;5051351;28;20083;-69
2022/09/06 02:39:59;;;;;;;15.30;11.93;;;18.10;99.90;;;;;;5035420;28;20092;-69
2022/09/06 02:42:25;;;;;;;14.90;11.52;;;18.20;99.90;;;;;;5046751;28;20078;-69
2022/09/06 02:44:51;;;;;;;12.98;11.63;;;18.30;99.90;;;;;;5051848;28;20403;-69
2022/09/06 02:47:17;;;;;;;17.10;12.10;;;18.20;99.90;;;;;;5045206;28;20056;-69
2022/09/06 02:49:43;;;;;;;12.82;11.20;;;18.20;99.90;;;;;;5049264;28;20037;-69
2022/09/06 02:52:08;;;;;;;14.88;12.18;;;18.20;99.90;;;;;;5015247;28;20095;-69
2022/09/06 02:54:34;;;;;;;15.05;11.95;;;18.20;99.90;;;;;;5038599;28;20041;-69
2022/09/06 02:56:59;;;;;;;14.15;12.20;;;18.20;99.90;;;;;;5050093;28;20048;-69
2022/09/06 02:59:25;;;;;;;15.38;12.23;;;18.20;99.90;;;;;;5051382;28;20040;-69
2022/09/06 03:01:50;;;;;;;16.08;12.90;;;18.30;99.90;;;;;;5050981;28;20069;-69
2022/09/06 03:04:16;;;;;;;13.98;12.50;;;18.20;99.90;;;;;;5051612;28;20107;-69
2022/09/06 03:06:42;;;;;;;15.73;12.73;;;18.30;99.90;;;;;;5034207;28;20530;-69
2022/09/06 03:09:09;;;;;;;15.23;12.27;;;18.30;99.90;;;;;;5051301;28;20045;-69
2022/09/06 03:11:35;;;;;;;21.48;13.38;;;18.30;99.90;;;;;;5051191;28;20041;-68
2022/09/06 03:14:00;;;;;;;16.33;13.20;;;18.30;99.90;;;;;;5051563;28;20552;-69
2022/09/06 03:16:26;;;;;;;16.48;12.95;;;18.30;99.90;;;;;;5051675;28;20124;-69
2022/09/06 03:18:52;;;;;;;14.43;12.68;;;18.20;99.90;;;;;;5051599;28;20032;-68
2022/09/06 03:21:17;;;;;;;15.00;13.43;;;18.20;99.90;;;;;;5053136;28;20051;-69
2022/09/06 03:23:44;;;;;;;15.32;13.07;;;18.20;99.90;;;;;;5049859;28;20480;-69
2022/09/06 03:26:10;;;;;;;17.67;13.45;;;18.10;99.90;;;;;;5047878;28;20128;-69
2022/09/06 03:28:36;;;;;;;15.57;13.55;;;18.00;99.90;;;;;;5051582;28;20136;-69
2022/09/06 03:31:01;;;;;;;14.45;12.95;;;17.90;99.90;;;;;;5050709;28;20466;-69
2022/09/06 03:33:27;;;;;;;14.40;12.35;;;17.90;99.90;;;;;;5047359;28;20068;-70
2022/09/06 03:35:55;;;;;;;21.58;11.52;;;17.90;99.90;;;;;;5051170;28;20395;-69
2022/09/06 03:38:22;;;;;;;22.13;12.80;;;18.00;99.90;;;;;;5052408;28;20266;-69
2022/09/06 03:40:48;;;;;;;17.95;12.15;;;18.00;99.90;;;;;;5050570;28;20041;-69
2022/09/06 03:43:15;;;;;;;16.60;12.43;;;18.00;99.90;;;;;;5056427;28;20037;-69
2022/09/06 03:45:51;;;;;;;14.25;12.25;;;18.00;99.90;;;;;;5051944;28;20029;-69
2022/09/06 03:48:18;;;;;;;18.55;12.43;;;18.00;99.90;;;;;;5051298;28;20052;-69
2022/09/06 03:50:45;;;;;;;15.00;12.23;;;18.00;99.90;;;;;;5046550;28;20053;-69
2022/09/06 03:53:12;;;;;;;15.55;12.65;;;18.00;99.90;;;;;;5048052;28;20161;-68
2022/09/06 03:55:37;;;;;;;17.67;13.45;;;18.00;99.90;;;;;;5047080;28;20083;-68
2022/09/06 03:58:03;;;;;;;14.20;12.73;;;18.00;99.90;;;;;;5049185;28;20083;-68
2022/09/06 04:00:29;;;;;;;19.25;12.88;;;18.00;99.90;;;;;;5043657;28;20042;-69
2022/09/06 04:02:54;;;;;;;16.45;13.25;;;18.00;99.90;;;;;;5065209;28;20483;-68
2022/09/06 04:05:20;;;;;;;15.20;12.68;;;18.00;99.90;;;;;;5047154;28;20090;-68
2022/09/06 04:07:45;;;;;;;13.90;12.40;;;18.00;99.90;;;;;;5054476;28;20033;-68
2022/09/06 04:10:11;;;;;;;17.10;12.30;;;18.00;99.90;;;;;;5052433;28;20050;-68
2022/09/06 04:12:36;;;;;;;14.70;12.25;;;18.00;99.90;;;;;;5054301;28;20045;-69
2022/09/06 04:15:02;;;;;;;16.65;12.23;;;17.90;99.90;;;;;;5043127;28;20384;-69
2022/09/06 04:17:28;;;;;;;15.38;12.90;;;17.90;99.90;;;;;;5050471;28;20037;-69
2022/09/06 04:19:53;;;;;;;19.20;12.88;;;17.90;99.90;;;;;;5059351;28;20437;-69
2022/09/06 04:22:19;;;;;;;14.85;12.43;;;17.80;99.90;;;;;;5070166;28;20110;-69
2022/09/06 04:24:44;;;;;;;16.23;12.60;;;17.90;99.90;;;;;;5070455;28;20045;-69
2022/09/06 04:27:10;;;;;;;14.43;12.88;;;17.80;99.90;;;;;;5071907;28;20039;-69
2022/09/06 04:29:36;;;;;;;17.65;13.55;;;17.70;99.90;;;;;;5054305;28;20364;-68
2022/09/06 04:32:01;;;;;;;15.43;13.63;;;17.70;99.90;;;;;;5065960;28;20041;-69
2022/09/06 04:34:27;;;;;;;16.13;13.38;;;17.70;99.90;;;;;;5049388;28;20509;-69
2022/09/06 04:36:52;;;;;;;15.88;13.23;;;17.70;99.90;;;;;;5050840;28;20372;-68
2022/09/06 04:39:18;;;;;;;15.10;13.00;;;17.60;99.90;;;;;;5037068;28;20073;-68
2022/09/06 04:41:44;;;;;;;16.27;12.48;;;17.70;99.90;;;;;;5032416;28;20041;-68
2022/09/06 04:44:09;;;;;;;17.95;12.48;;;17.60;99.90;;;;;;5050519;28;20120;-68
2022/09/06 04:46:35;;;;;;;14.25;12.48;;;17.60;99.90;;;;;;5063274;28;20037;-67
2022/09/06 04:49:00;;;;;;;13.75;11.55;;;17.60;99.90;;;;;;5050960;28;20041;-67
2022/09/06 04:51:26;;;;;;;17.70;13.35;;;17.60;99.90;;;;;;5052931;28;20515;-68
2022/09/06 04:53:52;;;;;;;14.00;12.50;;;17.50;99.90;;;;;;5044876;28;20041;-68
2022/09/06 04:56:23;;;;;;;15.35;13.02;;;17.60;99.90;;;;;;5055233;28;20094;-68
2022/09/06 04:58:49;;;;;;;14.95;13.35;;;17.50;99.90;;;;;;5058067;28;20037;-67
2022/09/06 05:01:17;;;;;;;14.20;12.68;;;17.50;99.90;;;;;;5053144;28;20479;-67
2022/09/06 05:03:43;;;;;;;16.75;13.38;;;17.40;99.90;;;;;;5044217;28;20483;-67
2022/09/06 05:06:18;;;;;;;15.35;13.32;;;17.40;99.90;;;;;;5058038;28;20113;-67
2022/09/06 05:08:43;;;;;;;15.40;13.55;;;17.40;99.90;;;;;;5053753;28;20384;-68
2022/09/06 05:11:10;;;;;;;17.67;13.60;;;17.40;99.90;;;;;;5061417;28;20052;-68
2022/09/06 05:13:36;;;;;;;17.13;14.40;;;17.40;99.90;;;;;;5067384;28;20048;-67
2022/09/06 05:16:04;;;;;;;16.95;14.15;;;17.40;99.90;;;;;;5053673;28;20180;-67
2022/09/06 05:18:29;;;;;;;15.48;13.65;;;17.50;99.90;;;;;;5060448;28;20153;-67
2022/09/06 05:20:55;;;;;;;16.80;14.75;;;17.50;99.90;;;;;;5055570;28;20063;-67
2022/09/06 05:23:21;;;;;;;16.80;14.48;;;17.40;99.90;;;;;;5049231;28;20037;-68
2022/09/06 05:25:47;;;;;;;19.23;14.80;;;17.40;99.90;;;;;;5054832;28;20107;-67
2022/09/06 05:28:14;;;;;;;17.10;14.77;;;17.50;99.90;;;;;;5033405;28;20037;-66
2022/09/06 05:30:40;;;;;;;18.63;14.90;;;17.40;99.90;;;;;;5039211;28;20115;-67
2022/09/06 05:33:10;;;;;;;16.95;14.85;;;17.40;99.90;;;;;;5052060;28;20032;-68
2022/09/06 05:35:36;;;;;;;16.67;13.85;;;17.50;99.90;;;;;;5061577;28;20106;-68
2022/09/06 05:38:01;;;;;;;20.00;14.32;;;17.50;99.90;;;;;;5073980;28;20068;-68
2022/09/06 05:40:27;;;;;;;16.23;14.43;;;17.50;99.90;;;;;;5060060;28;20038;-68
2022/09/06 05:42:53;;;;;;;16.85;15.00;;;17.50;99.90;;;;;;5035296;28;20124;-68
2022/09/06 05:45:18;;;;;;;17.95;14.63;;;17.50;99.90;;;;;;5065212;28;20052;-68
2022/09/06 05:47:44;;;;;;;16.33;14.68;;;17.60;99.90;;;;;;5052610;28;20061;-68
2022/09/06 05:50:10;;;;;;;18.42;15.10;;;17.60;99.90;;;;;;5054041;28;20483;-67
2022/09/06 05:52:35;;;;;;;16.85;13.98;;;17.60;99.90;;;;;;5047077;28;20108;-68
2022/09/06 05:55:02;;;;;;;17.25;14.63;;;17.60;99.90;;;;;;5032927;28;20038;-67
2022/09/06 05:57:27;;;;;;;17.63;15.70;;;17.60;99.90;;;;;;5033588;28;20041;-68
2022/09/06 05:59:53;;;;;;;20.67;16.17;;;17.70;99.90;;;;;;5033896;28;20044;-68
2022/09/06 06:02:20;;;;;;;17.33;15.52;;;17.60;99.90;;;;;;5033661;28;20044;-68
2022/09/06 06:04:46;;;;;;;17.75;15.55;;;17.70;99.90;;;;;;5034205;28;20059;-68
2022/09/06 06:07:12;;;;;;;17.20;14.73;;;17.60;99.90;;;;;;5034329;28;20080;-68
2022/09/06 06:09:37;;;;;;;16.95;14.85;;;17.70;99.90;;;;;;5050827;28;20041;-68
2022/09/06 06:12:03;;;;;;;17.17;14.70;;;17.60;99.90;;;;;;5048318;28;20092;-70
2022/09/06 06:14:28;;;;;;;19.83;15.80;;;17.60;99.90;;;;;;5047831;28;20483;-68
2022/09/06 06:16:54;;;;;;;18.63;15.85;;;17.70;99.90;;;;;;5038402;28;20071;-69
2022/09/06 06:19:20;;;;;;;18.05;16.15;;;17.60;99.90;;;;;;5050729;28;20510;-67
2022/09/06 06:21:45;;;;;;;19.23;16.13;;;17.70;99.90;;;;;;5052309;28;20399;-68
2022/09/06 06:24:11;;;;;;;20.15;16.08;;;17.70;99.90;;;;;;5051357;28;20280;-68
2022/09/06 06:26:37;;;;;;;20.00;16.25;;;17.80;99.90;;;;;;5051732;28;20044;-68
2022/09/06 06:29:04;;;;;;;19.55;15.95;;;17.80;99.90;;;;;;5051883;28;20486;-69
2022/09/06 06:31:31;;;;;;;18.45;15.70;;;17.70;99.90;;;;;;5052090;28;20049;-68
2022/09/06 06:33:57;;;;;;;18.17;16.13;;;17.80;99.90;;;;;;5051883;28;20052;-68
2022/09/06 06:36:25;;;;;;;21.15;16.83;;;17.80;99.90;;;;;;5052428;28;20037;-67
2022/09/06 06:38:54;;;;;;;20.98;16.45;;;17.80;99.90;;;;;;5046189;28;20044;-68
2022/09/06 06:41:25;;;;;;;20.15;17.27;;;17.90;99.90;;;;;;5046358;28;20396;-68
2022/09/06 06:43:55;;;;;;;20.50;18.00;;;17.90;99.90;;;;;;5051965;28;20053;-67
2022/09/06 06:46:27;;;;;;;23.27;18.92;;;17.80;99.90;;;;;;5052038;28;20045;-67
2022/09/06 06:48:56;;;;;;;19.13;17.15;;;17.90;99.90;;;;;;5052095;28;20040;-67
2022/09/06 06:51:31;;;;;;;25.08;18.30;;;17.90;99.90;;;;;;5052121;28;20052;-68
2022/09/06 06:53:57;;;;;;;20.70;18.27;;;17.90;99.90;;;;;;5042798;28;20398;-67
2022/09/06 06:56:34;;;;;;;21.35;19.05;;;18.00;99.90;;;;;;5051909;28;20033;-68
2022/09/06 06:59:02;;;;;;;20.40;17.98;;;18.00;99.90;;;;;;5034965;28;20479;-68
2022/09/06 07:01:30;;;;;;;21.17;18.20;;;17.90;99.90;;;;;;5033090;28;20116;-68
2022/09/06 07:03:57;;;;;;;21.20;17.80;;;18.10;99.90;;;;;;5031761;28;20091;-68
2022/09/06 07:06:23;;;;;;;22.58;17.70;;;18.10;99.90;;;;;;5048120;28;20044;-68
2022/09/06 07:08:49;;;;;;;25.35;18.05;;;18.30;99.90;;;;;;5052079;28;20099;-68
2022/09/06 07:11:17;;;;;;;22.63;18.33;;;18.30;99.90;;;;;;5041977;28;20033;-68
2022/09/06 07:13:43;;;;;;;26.02;18.90;;;18.30;99.90;;;;;;5031511;28;20541;-68
2022/09/06 07:16:13;;;;;;;21.50;18.08;;;18.40;99.90;;;;;;5052675;28;20133;-67
2022/09/06 07:18:44;;;;;;;21.13;18.83;;;18.50;99.90;;;;;;5053083;28;20051;-68
2022/09/06 07:21:15;;;;;;;21.15;18.85;;;18.60;99.90;;;;;;5052900;28;20063;-68
2022/09/06 07:23:42;;;;;;;20.42;17.80;;;18.80;99.90;;;;;;5051652;28;20080;-67
2022/09/06 07:26:12;;;;;;;29.10;17.83;;;18.90;99.90;;;;;;5051734;28;20398;-67
2022/09/06 07:28:38;;;;;;;21.02;18.60;;;19.00;99.90;;;;;;5051562;28;20041;-67
2022/09/06 07:31:03;;;;;;;23.02;18.40;;;19.10;99.90;;;;;;5052265;28;20041;-68
2022/09/06 07:33:29;;;;;;;23.35;18.63;;;19.30;99.90;;;;;;5051863;28;20040;-68
2022/09/06 07:36:00;;;;;;;25.73;19.42;;;19.40;99.90;;;;;;5050506;28;20045;-67
2022/09/06 07:38:27;;;;;;;24.20;19.33;;;19.50;99.90;;;;;;5051162;28;20033;-67
2022/09/06 07:40:57;;;;;;;22.83;18.80;;;19.60;99.90;;;;;;5049602;28;20103;-67
2022/09/06 07:43:24;;;;;;;23.27;19.70;;;19.60;99.90;;;;;;5045604;28;20053;-67
2022/09/06 07:46:11;;;;;;;24.85;18.95;;;19.70;99.90;;;;;;5031592;28;20484;-67
2022/09/06 07:48:40;;;;;;;22.20;19.38;;;19.90;99.90;;;;;;5044240;28;20047;-67
2022/09/06 07:51:20;;;;;;;22.45;19.23;;;20.00;99.90;;;;;;5051258;28;20418;-67
2022/09/06 07:53:56;;;;;;;22.13;18.42;;;20.20;99.90;;;;;;5044141;28;20491;-67
2022/09/06 07:56:23;;;;;;;24.42;19.90;;;20.30;99.90;;;;;;5046337;28;20041;-68
2022/09/06 07:58:50;;;;;;;23.65;19.00;;;20.50;99.90;;;;;;5050922;28;20033;-68
2022/09/06 08:01:28;;;;;;;24.55;19.80;;;20.60;99.90;;;;;;5048384;28;20033;-67
2022/09/06 08:03:56;;;;;;;21.50;18.60;;;20.70;99.90;;;;;;5051552;28;20538;-67
2022/09/06 08:06:22;;;;;;;23.13;18.70;;;20.70;99.90;;;;;;5050975;28;20064;-68
2022/09/06 08:08:48;;;;;;;23.48;18.55;;;20.70;99.90;;;;;;5050519;28;20139;-68
2022/09/06 08:11:13;;;;;;;22.27;18.30;;;20.80;99.90;;;;;;5051332;28;20064;-68
2022/09/06 08:13:39;;;;;;;21.15;18.55;;;20.90;99.90;;;;;;5051651;28;20068;-69
2022/09/06 08:16:07;;;;;;;21.50;19.20;;;20.80;99.90;;;;;;5051303;28;20496;-69
2022/09/06 08:18:34;;;;;;;22.10;19.70;;;20.90;99.90;;;;;;5051644;28;20448;-67
2022/09/06 08:21:15;;;;;;;23.98;18.67;;;21.10;99.90;;;;;;5051801;28;20503;-68
2022/09/06 08:23:47;;;;;;;22.55;18.30;;;21.20;99.90;;;;;;5049617;28;20037;-68
2022/09/06 08:26:14;;;;;;;19.17;16.33;;;21.40;99.90;;;;;;5048760;28;20063;-67
2022/09/06 08:28:39;;;;;;;19.95;16.75;;;21.50;99.90;;;;;;5044141;28;20128;-67
2022/09/06 08:31:10;;;;;;;22.13;17.08;;;21.70;99.90;;;;;;5040672;28;20112;-68
2022/09/06 08:33:37;;;;;;;20.00;17.90;;;21.80;99.90;;;;;;5050732;28;20484;-67
2022/09/06 08:36:03;;;;;;;19.52;17.52;;;21.80;99.90;;;;;;5052131;28;20395;-68
2022/09/06 08:38:29;;;;;;;20.92;17.13;;;22.00;99.90;;;;;;5054269;28;20045;-70
2022/09/06 08:41:10;;;;;;;20.67;17.60;;;22.10;99.90;;;;;;5053548;28;20048;-67
2022/09/06 08:43:37;;;;;;;23.52;17.65;;;22.10;99.90;;;;;;5052341;28;20446;-68
2022/09/06 08:46:03;;;;;;;20.67;17.55;;;22.20;99.90;;;;;;5048702;28;20037;-67
2022/09/06 08:48:32;;;;;;;18.90;15.80;;;22.30;99.90;;;;;;5061387;28;20049;-69
2022/09/06 08:51:15;;;;;;;18.88;15.15;;;22.40;99.90;;;;;;5054190;28;20045;-67
2022/09/06 08:53:47;;;;;;;18.92;16.73;;;22.50;99.90;;;;;;5047629;28;20037;-67
2022/09/06 08:56:22;;;;;;;19.63;15.80;;;22.60;99.90;;;;;;5049688;28;20148;-70
2022/09/06 08:59:06;;;;;;;18.58;15.32;;;22.60;99.90;;;;;;5050337;28;20116;-69
2022/09/06 09:01:48;;;;;;;17.42;14.30;;;22.70;99.90;;;;;;5056529;28;20076;-67
2022/09/06 09:04:19;;;;;;;17.25;13.82;;;22.80;99.90;;;;;;5056283;28;20049;-69
2022/09/06 09:06:49;;;;;;;14.48;12.93;;;22.90;99.90;;;;;;5070156;28;20052;-69
2022/09/06 09:09:15;;;;;;;13.52;11.88;;;23.00;99.90;;;;;;5040425;28;20048;-68
2022/09/06 09:11:46;;;;;;;18.02;13.13;;;23.00;99.90;;;;;;5052824;28;20041;-68
2022/09/06 09:14:25;;;;;;;18.35;12.50;;;23.10;99.90;;;;;;5056910;28;20084;-68
2022/09/06 09:16:53;;;;;;;16.13;12.60;;;23.20;99.90;;;;;;5070397;28;20052;-68
2022/09/06 09:19:19;;;;;;;15.68;13.10;;;23.30;99.90;;;;;;5037622;28;20075;-68
2022/09/06 09:21:45;;;;;;;17.80;13.60;;;23.30;99.90;;;;;;5055232;28;20753;-68
2022/09/06 09:24:14;;;;;;;16.30;12.40;;;23.30;99.90;;;;;;5055556;28;20041;-69
2022/09/06 09:27:05;;;;;;;13.23;11.68;;;23.30;99.90;;;;;;5052986;28;20076;-68
2022/09/06 09:29:31;;;;;;;14.43;12.83;;;23.50;99.90;;;;;;5051962;28;20052;-68
2022/09/06 09:31:56;;;;;;;16.42;13.13;;;23.50;99.90;;;;;;5052533;28;20037;-68
2022/09/06 09:34:33;;;;;;;15.38;12.38;;;23.60;99.90;;;;;;5053316;28;20319;-68
2022/09/06 09:37:22;;;;;;;18.30;13.48;;;23.60;99.90;;;;;;5049851;28;20041;-69
2022/09/06 09:39:52;;;;;;;15.60;13.00;;;23.70;99.90;;;;;;5052765;28;20440;-69
2022/09/06 09:42:31;;;;;;;18.17;13.52;;;23.80;99.90;;;;;;5049592;28;20515;-68
2022/09/06 09:44:58;;;;;;;17.15;14.13;;;23.80;99.90;;;;;;5042790;28;21423;-68
2022/09/06 09:47:28;;;;;;;15.68;13.55;;;23.90;99.90;;;;;;5053853;28;20049;-68
2022/09/06 09:49:55;;;;;;;16.65;14.07;;;23.90;99.90;;;;;;5052479;28;20040;-68
2022/09/06 09:52:31;;;;;;;15.93;14.20;;;24.00;99.90;;;;;;5072522;28;20522;-68
2022/09/06 09:55:03;;;;;;;18.65;14.63;;;24.00;99.90;;;;;;5050734;28;20735;-69
2022/09/06 09:57:41;;;;;;;16.63;13.45;;;24.10;99.90;;;;;;5058690;28;20045;-71
2022/09/06 10:00:11;;;;;;;17.67;13.65;;;24.20;99.90;;;;;;5034958;28;20037;-68
2022/09/06 10:02:39;;;;;;;16.55;13.60;;;24.30;99.90;;;;;;5039690;28;20051;-71
2022/09/06 10:05:11;;;;;;;15.10;13.55;;;24.40;99.90;;;;;;5015475;28;20041;-70
2022/09/06 10:07:41;;;;;;;;;;;24.50;99.90;;;;;;5045055;28;20542;-68
2022/09/06 10:10:24;;;;;;;12.70;11.32;;;24.50;99.90;;;;;;5050176;28;19979;-67
2022/09/06 10:13:29;;;;;;;13.80;12.25;;;24.60;99.90;;;;;;5046567;28;20509;-68
2022/09/06 10:16:02;;;;;;;14.77;12.25;;;24.60;99.90;;;;;;5051865;28;20388;-68
2022/09/06 10:18:31;;;;;;;16.40;12.73;;;24.80;99.90;;;;;;5050884;28;20127;-68
2022/09/06 10:21:04;;;;;;;15.00;13.38;;;24.80;99.90;;;;;;5044309;28;20033;-67
2022/09/06 10:23:51;;;;;;;15.25;13.25;;;24.90;99.90;;;;;;5043982;28;20077;-68
2022/09/06 10:26:31;;;;;;;14.50;12.30;;;24.90;99.90;;;;;;5039934;28;20044;-69
2022/09/06 10:29:30;;;;;;;16.38;13.50;;;25.00;99.90;;;;;;5051956;28;20513;-68
2022/09/06 10:31:55;;;;;;;17.77;12.82;;;25.00;99.90;;;;;;5058310;28;20060;-68
2022/09/06 10:34:38;;;;;;;13.95;11.25;;;25.10;99.90;;;;;;5051150;28;20394;-68
2022/09/06 10:37:15;;;;;;;16.17;11.90;;;25.10;99.90;;;;;;5033281;28;20041;-68
2022/09/06 10:39:40;;;;;;;13.60;10.80;;;25.20;99.90;;;;;;5034727;28;20435;-68
2022/09/06 10:42:25;;;;;;;14.10;10.82;;;25.20;99.90;;;;;;5031655;28;20053;-68
2022/09/06 10:45:09;;;;;;;12.50;9.27;;;25.30;99.90;;;;;;5064841;28;20476;-69
2022/09/06 10:47:48;;;;;;;13.98;11.52;;;25.40;99.90;;;;;;5050156;28;20057;-68
2022/09/06 10:50:15;;;;;;;15.10;12.65;;;25.40;99.90;;;;;;5047802;28;20045;-69
2022/09/06 10:52:45;;;;;;;18.58;12.57;;;25.50;99.90;;;;;;5030482;28;20128;-68
2022/09/06 10:55:15;;;;;;;15.90;11.05;;;25.40;99.90;;;;;;5038098;28;20077;-68
2022/09/06 10:57:43;;;;;;;15.65;11.95;;;25.50;99.90;;;;;;5049690;28;20498;-68
2022/09/06 11:00:13;;;;;;;18.30;11.50;;;25.50;99.90;;;;;;5030932;28;20045;-70
2022/09/06 11:02:57;;;;;;;11.50;9.15;;;25.50;99.90;;;;;;5040141;28;20060;-68
2022/09/06 11:05:32;;;;;;;12.35;8.48;;;25.60;99.90;;;;;;5058825;28;20508;-69
2022/09/06 11:08:16;;;;;;;9.88;7.30;;;25.70;99.90;;;;;;5047442;28;20498;-70
2022/09/06 11:10:44;;;;;;;10.00;6.60;;;25.70;99.90;;;;;;5031700;28;20487;-69
2022/09/06 11:13:21;;;;;;;9.60;7.25;;;25.80;99.90;;;;;;5049615;28;20044;-71
2022/09/06 11:16:01;;;;;;;11.45;10.00;;;25.80;99.90;;;;;;5048534;28;20487;-68
2022/09/06 11:18:38;;;;;;;10.20;8.98;;;25.80;99.90;;;;;;5070019;28;20071;-68
2022/09/06 11:21:19;;;;;;;8.52;7.18;;;25.80;99.90;;;;;;5068526;28;20579;-69
2022/09/06 11:24:09;;;;;;;15.25;6.97;;;25.90;99.90;;;;;;5059159;28;20044;-68
2022/09/06 11:26:56;;;;;;;7.63;5.97;;;26.00;99.90;;;;;;5039086;28;20053;-68
2022/09/06 11:29:25;;;;;;;8.10;5.22;;;26.00;99.90;;;;;;5030432;28;20072;-70
2022/09/06 11:31:57;;;;;;;7.38;5.20;;;26.00;99.90;;;;;;5042023;28;20557;-68
2022/09/06 11:34:26;;;;;;;6.45;5.28;;;26.10;99.90;;;;;;5049339;28;20077;-69
2022/09/06 11:37:00;;;;;;;7.90;5.85;;;26.00;99.90;;;;;;5039495;28;20096;-69
2022/09/06 11:39:32;;;;;;;9.95;7.05;;;26.00;99.90;;;;;;5059425;28;20441;-69
2022/09/06 11:41:58;;;;;;;13.85;6.85;;;26.00;99.90;;;;;;5057698;28;20438;-68
2022/09/06 11:44:49;;;;;;;9.60;6.88;;;26.10;99.90;;;;;;5050591;28;20052;-68
2022/09/06 11:47:42;;;;;;;8.82;6.22;;;26.10;99.90;;;;;;5043739;28;20061;-69
2022/09/06 11:50:21;;;;;;;8.27;5.75;;;26.30;99.90;;;;;;5048717;28;20573;-69
2022/09/06 11:52:58;;;;;;;6.35;4.97;;;26.40;99.90;;;;;;5029319;28;20053;-68
2022/09/06 11:55:41;;;;;;;6.28;4.53;;;26.50;99.90;;;;;;5035921;28;20045;-67
2022/09/06 11:58:22;;;;;;;7.43;5.20;;;26.50;99.90;;;;;;5065724;28;20098;-68
2022/09/06 12:01:13;;;;;;;12.27;5.30;;;26.60;99.90;;;;;;5048029;28;20043;-71
2022/09/06 12:03:45;;;;;;;9.53;5.17;;;26.60;99.90;;;;;;5049199;28;20124;-68
2022/09/06 12:06:14;;;;;;;6.72;4.88;;;26.60;99.90;;;;;;5037591;28;20848;-68
2022/09/06 12:08:40;;;;;;;6.10;5.10;;;26.70;99.90;;;;;;5028892;28;20041;-71
2022/09/06 12:11:32;;;;;;;7.03;4.90;;;26.80;99.90;;;;;;5028558;28;20041;-68
2022/09/06 12:14:02;;;;;;;6.95;5.47;;;26.80;99.90;;;;;;5044950;28;20080;-70
2022/09/06 12:17:06;;;;;;;7.35;4.90;;;26.90;99.90;;;;;;5045315;28;20067;-71
2022/09/06 12:20:06;;;;;;;7.50;4.88;;;26.90;99.90;;;;;;5046752;28;20461;-71
2022/09/06 12:22:31;;;;;;;5.63;4.80;;;26.80;99.90;;;;;;5039311;28;20466;-69
2022/09/06 12:25:06;;;;;;;7.22;4.78;;;26.70;99.90;;;;;;5048515;28;20032;-69
2022/09/06 12:28:11;;;;;;;8.77;5.00;;;26.70;99.90;;;;;;5061762;28;20531;-69
2022/09/06 12:30:42;;;;;;;8.55;5.50;;;26.60;99.90;;;;;;5037867;28;20040;-69
2022/09/06 12:33:23;;;;;;;8.57;5.22;;;26.60;99.90;;;;;;5038269;28;20041;-68
2022/09/06 12:35:49;;;;;;;8.73;5.18;;;26.70;99.90;;;;;;5049094;28;20045;-71
2022/09/06 12:38:21;;;;;;;5.53;5.00;;;26.70;99.90;;;;;;5048096;28;20037;-73
2022/09/06 12:40:50;;;;;;;10.05;4.90;;;26.80;99.90;;;;;;5039009;28;20046;-70
2022/09/06 12:43:17;;;;;;;7.88;4.70;;;26.80;99.90;;;;;;5050649;28;20036;-69
2022/09/06 12:45:45;;;;;;;8.57;5.45;;;26.90;99.90;;;;;;5048899;28;20467;-71
2022/09/06 12:48:25;;;;;;;8.38;5.13;;;27.00;99.90;;;;;;5045963;28;20483;-68
2022/09/06 12:51:30;;;;;;;8.57;5.32;;;26.90;99.90;;;;;;5039246;28;20033;-69